createdAt,value
2018-03-11T17:54:15.367Z,18.31
2018-03-11T18:00:05.991Z,15.53
2018-03-11T18:05:56.660Z,9.87
2018-03-11T18:11:47.338Z,18.95
2018-03-11T18:17:38.019Z,17.03
2018-03-11T18:23:28.586Z,12.54
2018-03-11T18:29:19.242Z,12.94
2018-03-11T18:35:09.893Z,9.16
2018-03-11T18:41:00.553Z,11.11
2018-03-11T18:46:51.249Z,12.7
2018-03-11T18:52:41.880Z,11.52
2018-03-11T18:58:32.528Z,14.29
2018-03-11T19:04:23.171Z,8.77
2018-03-11T19:10:13.791Z,12.44
2018-03-11T19:16:04.533Z,11.72
2018-03-11T19:21:55.129Z,8.07
2018-03-11T19:27:45.715Z,12.72
2018-03-11T19:33:36.386Z,13.18
2018-03-11T19:39:27.010Z,20.13
2018-03-11T19:45:17.688Z,11.91
2018-03-11T19:51:08.304Z,14.61
2018-03-11T19:56:58.989Z,9.84
2018-03-11T20:02:49.603Z,16.83
2018-03-11T20:08:40.250Z,22.98
2018-03-11T20:14:30.938Z,16.83
2018-03-11T20:20:21.565Z,25.02
2018-03-11T20:26:12.198Z,25.54
2018-03-11T20:32:02.798Z,26.84
2018-03-11T20:37:53.437Z,32.42
2018-03-11T20:43:44.061Z,30.58
2018-03-11T20:49:34.722Z,23.49
2018-03-11T20:55:25.335Z,27.48
2018-03-11T21:01:15.987Z,17.88
2018-03-11T21:07:06.664Z,26.56
2018-03-11T21:12:57.275Z,21.98
2018-03-11T21:18:47.948Z,24.27
2018-03-11T21:24:38.541Z,33.8
2018-03-11T21:30:29.176Z,39.1
2018-03-11T21:36:19.806Z,33.53
2018-03-11T21:42:10.440Z,40.96
2018-03-11T21:48:01.150Z,28.82
2018-03-11T21:53:51.734Z,23.25
2018-03-11T21:59:42.364Z,22.11
2018-03-11T22:03:52.629Z,22.62
2018-03-11T22:09:43.238Z,14.95
2018-03-11T22:15:33.877Z,12.72
2018-03-11T22:21:24.521Z,14.24
2018-03-11T22:27:15.160Z,14.77
2018-03-11T22:33:05.801Z,11.3
2018-03-11T22:38:56.383Z,18.95
2018-03-11T22:44:47.033Z,18.53
2018-03-11T22:50:37.688Z,18.04
2018-03-11T22:56:28.360Z,15.64
2018-03-11T23:02:18.959Z,13.28
2018-03-11T23:08:09.587Z,12.56
2018-03-11T23:14:00.193Z,11.7
2018-03-11T23:19:50.847Z,12.56
2018-03-11T23:25:41.485Z,9.56
2018-03-11T23:27:55.945Z,12.13
2018-03-11T23:33:46.607Z,13.28
2018-03-11T23:39:37.258Z,8.59
2018-03-11T23:45:27.914Z,8.44
2018-03-11T23:51:18.537Z,24.01
2018-03-11T23:57:09.146Z,8.87
